• Join FlightAware (Why Join?)
  • Login
  • US Flag 
07:42PM EST


 

Airport Tracker/Info


-or-


 

Live Flight TrackerFlight Track Log ✈ SIL4008 ✈ 08-Apr-2014 ✈ KTPA - KJAX

Flight Track Log - Related Links

Times and Time Zones

All times are in EDT time to prevent confusion due to time zone crossing. See the SIL4008 flight status page for this flight to view local times or setup timezone preferences in your user account.

Time Position Orientation Groundspeed Altitude Reporting Facility
EDT Latitude Longitude Course Direction KTS MPH feet Rate Location/Type
08:17PM 28.0000 -82.5333 North 153 176 800  Level Tampa TRACON
08:17PM 28.0167 -82.5333 360° North 142 163 1,500 1,692 Climbing Tampa TRACON
08:18PM 28.0333 -82.5667 300° West 131 151 3,000 1,450 Climbing Tampa TRACON
08:19PM 28.5280 -82.4377 10° North  Level FlightAware Approximate
08:19PM 28.0667 -82.6000 319° Northwest 144 166 4,400  Level Tampa TRACON
08:20PM 28.5984 -82.4333 North  Level FlightAware Approximate
08:20PM 28.1000 -82.6167 336° Northwest 152 175 5,500  Level Tampa TRACON
08:21PM 28.6671 -82.4167 North  Level FlightAware Approximate
08:21PM 28.1333 -82.6500 319° Northwest 161 185 6,800  Level Tampa TRACON
08:22PM 28.7378 -82.4159 North  Level FlightAware Approximate
08:22PM 28.1833 -82.6500 360° North 193 222 7,700  Level Tampa TRACON
08:23PM 28.2333 -82.6500 360° North 197 227 8,900 1,100 Climbing Tampa TRACON
08:24PM 28.2833 -82.6500 360° North 202 232 9,900 950 Climbing Tampa TRACON
08:25PM 28.3500 -82.6500 360° North 222 255 10,800 524 Climbing Tampa TRACON
08:26PM 28.4333 -82.6500 360° North 256 295 11,000 90 Climbing Tampa TRACON
08:27PM 28.5169 -82.6422 North 274 315 11,000 609 Level Jacksonville Center
08:28PM 28.5919 -82.6347 North 274 315 12,300 1,100 Climbing Jacksonville Center
08:29PM 28.6608 -82.6206 10° North 261 300 13,200 800 Climbing Jacksonville Center
08:30PM 28.7214 -82.5989 17° North 251 289 13,900 233 Climbing Jacksonville Center
08:32PM 28.8778 -82.5486 16° North 275 316 13,900  Level Jacksonville Center
08:33PM 28.9611 -82.5175 18° North 293 337 13,900  Level Jacksonville Center
08:34PM 29.0467 -82.4889 16° North 304 350 13,900  Level Jacksonville Center
08:35PM 29.1342 -82.4622 15° North 309 356 13,900  Level Jacksonville Center
08:36PM 29.2197 -82.4406 12° North 309 356 13,900  Level Jacksonville Center
08:37PM 29.3053 -82.4378 North 309 356 13,900  Level Jacksonville Center
08:38PM 29.3931 -82.4372 360° North 309 356 13,900  Level Jacksonville Center
08:39PM 29.4681 -82.4250 North 325 374 13,900  Level Jacksonville Center
08:39PM 29.4806 -82.4203 18° North 309 356 13,900  Level Jacksonville Center
08:40PM 29.5494 -82.3675 34° Northeast 349 402 13,900  Level Jacksonville Center
08:40PM 29.5619 -82.3600 28° Northeast 315 362 13,900 98 Level Jacksonville Center
08:41PM 29.6325 -82.3119 31° Northeast 343 395 14,000 100 Climbing Jacksonville Center
08:41PM 29.6450 -82.3022 34° Northeast 327 376 14,000  Level Jacksonville Center
08:42PM 29.7261 -82.2492 30° Northeast 339 390 14,000  Level Jacksonville Center
08:43PM 29.8011 -82.1936 33° Northeast 349 402 14,000  Level Jacksonville Center
08:43PM 29.8094 -82.1889 26° Northeast 339 390 14,000  Level Jacksonville Center
08:44PM 29.8842 -82.1308 34° Northeast 345 397 14,000  Level Jacksonville Center
08:45PM 29.9717 -82.0725 30° Northeast 339 390 14,000 -492 Level Jacksonville Center
08:46PM 30.0547 -82.0094 33° Northeast 367 422 13,000 -1,168 Descending Jacksonville Center
08:47PM 30.1358 -81.9536 31° Northeast 319 367 11,800 -1,180 Descending Jacksonville Center
08:48PM 30.1978 -81.8831 45° Northeast 305 351 10,600 -1,230 Descending Jacksonville Center
08:49PM 30.2453 -81.8033 55° Northeast 294 338 9,300 -1,230 Descending Jacksonville Center
08:50PM 30.2967 -81.7281 52° Northeast 295 339 8,100 -1,190 Descending Jacksonville Center
08:51PM 30.3481 -81.6481 53° Northeast 303 349 6,900 -1,190 Descending Jacksonville Center
08:52PM 30.3953 -81.5728 54° Northeast 275 316 5,700 -1,180 Descending Jacksonville Center
08:53PM 30.4406 -81.5000 54° Northeast 264 304 4,500 -1,230 Descending Jacksonville Center
08:54PM 30.4989 -81.4919 North 193 222 3,200 -1,172 Descending Jacksonville Center
08:55PM 30.5244 -81.5350 305° West 127 146 2,000 -563 Descending Jacksonville Center
08:56PM 30.5289 -81.5711 278° West 113 130 2,000 -347 Level Jacksonville Center
08:57PM 30.5231 -81.6097 260° West 117 135 1,300 -678 Descending Jacksonville Center
08:58PM 30.5150 -81.6411 253° West 115 132 700 -655 Descending Jacksonville Center
09:00PM 30.4833 -81.6833 270° West  Level FlightAware Approximate
09:07PM 30.4941 -81.6878 270° West  Level Estimated
09:08PM 30.4941 -81.6878 93° East  Level Estimated